Saturday, November 18, 2017, 4:38 PM EST
Back to Local

KRME, Griffiss Airfield

Location: Rome, NY, United States Lat: 43.233
Local Time: 4:38 PM EST (21:38 GMT) Lon: -75.4
Time Zone: US/Eastern Elev: 505 ft

Show me the last for .
Show Decoded

2017-11-18 15:53 METAR KRME 182053Z 11006KT 10SM OVC028 03/M03 A2953 RMK AO2 RAB11E23 SLP002
                 P0000 60000 T00331028 58027 =
2017-11-18 15:13 METAR KRME 182013Z 13007KT 10SM -RA OVC028 03/M03 A2955 RMK AO2 RAB11 P0000
                 T00281028 =
2017-11-18 14:53 METAR KRME 181953Z 13005KT 10SM OVC030 03/M03 A2956 RMK AO2 SLP013 T00331028 =
2017-11-18 13:53 METAR KRME 181853Z 13007KT 10SM OVC035 03/M04 A2959 RMK AO2 SLP023 T00281039 =
2017-11-18 12:53 METAR KRME 181753Z 13010KT 10SM OVC037 03/M04 A2961 RMK AO2 SLP030 60000
                 T00281044 10028 21022 58034 =
2017-11-18 11:53 METAR KRME 181653Z 10010KT 10SM OVC070 03/M04 A2966 RMK AO2 PRESFR SLP047
                 T00281044 =
2017-11-18 10:53 METAR KRME 181553Z 10007KT 10SM OVC070 02/M05 A2970 RMK AO2 RAE1457 SLP060 P0000
                 T00221050 =
2017-11-18 09:53 METAR KRME 181453Z 09009KT 10SM -RA FEW070 OVC090 02/M06 A2971 RMK AO2 RAB48
                 PRESFR SLP066 P0000 60000 T00171056 58036 =
2017-11-18 08:53 METAR KRME 181353Z 11009KT 10SM SCT120 01/M06 A2978 RMK AO2 SLP088 T00061061 =
2017-11-18 07:53 METAR KRME 181253Z 10007KT 10SM CLR M01/M07 A2981 RMK AO2 SLP099 T10061067 =
2017-11-18 06:53 METAR KRME 181153Z 12008KT 10SM CLR M02/M07 A2982 RMK AO2 SLP103 T10221067 11022
                 21044 56034 =
2017-11-18 05:53 METAR KRME 181053Z AUTO 12007KT 10SM CLR M03/M07 A2985 RMK AO2 PRESFR SLP111
                 T10281067 =
2017-11-18 04:53 METAR KRME 180953Z AUTO 10007KT 10SM CLR M03/M06 A2989 RMK AO2 SLP127 T10281061
                 =
2017-11-18 03:53 METAR KRME 180853Z AUTO 13006KT 10SM BKN110 M04/M07 A2992 RMK AO2 SLP137
                 T10391067 56029 =
2017-11-18 02:53 METAR KRME 180753Z AUTO 11009KT 10SM FEW110 M03/M06 A2993 RMK AO2 SLP141
                 T10331061 =
2017-11-18 01:53 METAR KRME 180653Z AUTO 09007KT 10SM CLR M03/M07 A2998 RMK AO2 SLP157 T10331067
                 =
2017-11-18 00:53 METAR KRME 180553Z AUTO 10004KT 10SM CLR M04/M07 A3001 RMK AO2 SLP167 T10441067
                 11017 21056 58020 =
2017-11-17 23:53 METAR KRME 180453Z AUTO 16003KT 10SM CLR M05/M07 A3004 RMK AO2 SLP178 T10501067
                 400221050 =
2017-11-17 22:53 METAR KRME 180353Z AUTO 14004KT 10SM CLR M04/M07 A3006 RMK AO2 SLP184 T10441067
                 =
2017-11-17 21:53 METAR KRME 180253Z AUTO 08005KT 10SM CLR M04/M07 A3007 RMK AO2 SLP187 T10391067
                 56025 =
2017-11-17 20:53 METAR KRME 180153Z 00000KT 10SM CLR M04/M06 A3010 RMK AO2 SLP196 T10391061 =
2017-11-17 19:53 METAR KRME 180053Z 00000KT 10SM CLR M02/M07 A3010 RMK AO2 SLP198 T10221067 =
2017-11-17 18:53 METAR KRME 172353Z 00000KT 10SM CLR M02/M06 A3014 RMK AO2 SLP212 T10221061 10022
                 21039 58006 =
2017-11-17 17:53 METAR KRME 172253Z 34004KT 10SM CLR M03/M07 A3016 RMK AO2 SLP218 T10281072 =
2017-11-17 16:53 METAR KRME 172153Z 30005KT 10SM CLR M03/M07 A3016 RMK AO2 SLP217 T10281072 =

Support USWX by starting your Amazon purchase here.